Time;durP1;ratioP1;P1;durP2;ratioP2;P2;SDS_P1;SDS_P2;PMS_P1;PMS_P2;Temp;Humidity;BMP_temperature;BMP_pressure;BME280_temperature;BME280_humidity;BME280_pressure;Samples;Min_cycle;Max_cycle;Signal;HPM_P1;HPM_P2
2022/09/15 00:00:08;;;;;;;;;;;;;;;;;;349957;28;901;-62
2022/09/15 00:00:18;;;;;;;;;;;;;;;;;;349990;28;913;-62
2022/09/15 00:00:28;;;;;;;;;;;;;;;;;;349964;28;844;-62
2022/09/15 00:00:39;;;;;;;;;;;;;;;;;;350014;28;837;-62
2022/09/15 00:00:50;;;;;;;;;;;;;;;;;;349934;28;941;-63
2022/09/15 00:01:00;;;;;;;;;;;;;;;;;;350011;28;774;-62
2022/09/15 00:01:11;;;;;;;;;;;;;;;;;;349936;28;794;-63
2022/09/15 00:01:21;;;;;;;;;;;;;;;;;;349906;28;892;-62
2022/09/15 00:01:32;;;;;;;;;;;;;;;;;;350011;28;972;-63
2022/09/15 00:01:42;;;;;;;;;;;;;;;;;;349884;28;890;-63
2022/09/15 00:01:52;;;;;;;;;;;;;;;;;;349937;28;949;-62
2022/09/15 00:02:03;;;;;;;;;;;;;;;;;;349940;28;991;-62
2022/09/15 00:02:13;;;;;;;;;;;;;;;;;;350033;28;790;-62
2022/09/15 00:02:23;;;;;;;;;;;;;;;;;;349963;28;992;-62
2022/09/15 00:02:33;;;;;;;;;;;;;;;;;;349890;28;948;-62
2022/09/15 00:02:44;;;;;;;;;;;;;;;;;;349942;28;944;-62
2022/09/15 00:02:54;;;;;;;;;;;;;;;;;;349994;28;968;-63
2022/09/15 00:03:05;;;;;;;;;;;;;;;;;;349917;28;1023;-63
2022/09/15 00:03:15;;;;;;;;;;;;;;;;;;349938;28;987;-62
2022/09/15 00:03:25;;;;;;;;;;;;;;;;;;349913;28;1019;-63
2022/09/15 00:03:35;;;;;;;;;;;;;;;;;;349971;28;802;-62
2022/09/15 00:03:46;;;;;;;;;;;;;;;;;;349957;28;976;-63
2022/09/15 00:03:56;;;;;;;;;;;;;;;;;;349968;28;924;-63
2022/09/15 00:04:07;;;;;;;;;;;;;;;;;;349736;28;1191;-64
2022/09/15 00:04:17;;;;;;;;;;;;;;;;;;349840;28;1434;-63
2022/09/15 00:04:27;;;;;;;;;;;;;;;;;;349974;28;1003;-62
2022/09/15 00:04:38;;;;;;;;;;;;;;;;;;349938;28;921;-63
2022/09/15 00:04:48;;;;;;;;;;;;;;;;;;350000;28;810;-63
2022/09/15 00:04:58;;;;;;;;;;;;;;;;;;349997;28;826;-63
2022/09/15 00:05:09;;;;;;;;;;;;;;;;;;349879;28;980;-63
2022/09/15 00:05:19;;;;;;;;;;;;;;;;;;349935;28;842;-62
2022/09/15 00:05:29;;;;;;;;;;;;;;;;;;349995;28;959;-62
2022/09/15 00:05:40;;;;;;;;;;;;;;;;;;349851;28;1975;-62
2022/09/15 00:05:51;;;;;;;;;;;;;;;;;;349971;28;972;-62
2022/09/15 00:06:01;;;;;;;;;;;;;;;;;;349910;28;894;-62
2022/09/15 00:06:12;;;;;;;;;;;;;;;;;;349978;28;909;-63
2022/09/15 00:06:22;;;;;;;;;;;;;;;;;;349972;28;1028;-62
2022/09/15 00:06:33;;;;;;;;;;;;;;;;;;349999;28;1010;-63
2022/09/15 00:06:43;;;;;;;;;;;;;;;;;;349997;28;951;-63
2022/09/15 00:06:53;;;;;;;;;;;;;;;;;;349984;28;775;-63
2022/09/15 00:07:03;;;;;;;;;;;;;;;;;;349962;28;917;-63
2022/09/15 00:07:14;;;;;;;;;;;;;;;;;;350005;28;936;-63
2022/09/15 00:07:25;;;;;;;;;;;;;;;;;;349861;28;952;-62
2022/09/15 00:07:35;;;;;;;;;;;;;;;;;;349024;28;2014;-63
2022/09/15 00:07:45;;;;;;;;;;;;;;;;;;349797;28;1665;-62
2022/09/15 00:07:55;;;;;;;;;;;;;;;;;;349938;28;924;-62
2022/09/15 00:08:06;;;;;;;;;;;;;;;;;;349917;28;882;-62
2022/09/15 00:08:16;;;;;;;;;;;;;;;;;;349967;28;992;-62
2022/09/15 00:08:26;;;;;;;;;;;;;;;;;;349941;28;1054;-62
2022/09/15 00:08:37;;;;;;;;;;;;;;;;;;349911;28;909;-63
2022/09/15 00:08:47;;;;;;;;;;;;;;;;;;350001;28;857;-62
2022/09/15 00:08:58;;;;;;;;;;;;;;;;;;349987;28;945;-62
2022/09/15 00:09:08;;;;;;;;;;;;;;;;;;349922;28;940;-63
2022/09/15 00:09:18;;;;;;;;;;;;;;;;;;349976;28;903;-62
2022/09/15 00:09:28;;;;;;;;;;;;;;;;;;349954;28;968;-62
2022/09/15 00:09:39;;;;;;;;;;;;;;;;;;350051;28;762;-62
2022/09/15 00:09:49;;;;;;;;;;;;;;;;;;349931;28;913;-63
2022/09/15 00:09:59;;;;;;;;;;;;;;;;;;349941;28;921;-62
2022/09/15 00:10:10;;;;;;;;;;;;;;;;;;349939;28;908;-62
2022/09/15 00:10:20;;;;;;;;;;;;;;;;;;349966;28;921;-62
2022/09/15 00:10:30;;;;;;;;;;;;;;;;;;349929;28;992;-62
2022/09/15 00:10:48;;;;;;;;;;;;;;;;;;349902;28;1023;-62
2022/09/15 00:11:06;;;;;;;;;;;;;;;;;;348649;28;1337;-62
2022/09/15 00:11:21;;;;;;;;;;;;;;;;;;348491;28;879;-62
2022/09/15 00:11:32;;;;;;;;;;;;;;;;;;348549;28;925;-63
2022/09/15 00:11:42;;;;;;;;;;;;;;;;;;348565;28;862;-62
2022/09/15 00:11:52;;;;;;;;;;;;;;;;;;348554;28;921;-62
2022/09/15 00:12:03;;;;;;;;;;;;;;;;;;348561;28;763;-62
2022/09/15 00:12:13;;;;;;;;;;;;;;;;;;348565;28;860;-62
2022/09/15 00:12:23;;;;;;;;;;;;;;;;;;348624;28;1636;-62
2022/09/15 00:12:34;;;;;;;;;;;;;;;;;;348556;28;888;-63
2022/09/15 00:12:44;;;;;;;;;;;;;;;;;;348612;28;1784;-63
2022/09/15 00:12:54;;;;;;;;;;;;;;;;;;348611;28;869;-62
2022/09/15 00:13:05;;;;;;;;;;;;;;;;;;348607;28;913;-62
2022/09/15 00:13:15;;;;;;;;;;;;;;;;;;348537;28;958;-63
2022/09/15 00:13:25;;;;;;;;;;;;;;;;;;348595;28;953;-62
2022/09/15 00:13:36;;;;;;;;;;;;;;;;;;348516;28;1098;-62
2022/09/15 00:13:47;;;;;;;;;;;;;;;;;;348578;28;987;-63
2022/09/15 00:13:58;;;;;;;;;;;;;;;;;;348535;28;1011;-63
2022/09/15 00:14:08;;;;;;;;;;;;;;;;;;348581;28;1012;-62
2022/09/15 00:14:19;;;;;;;;;;;;;;;;;;348587;28;1020;-63
2022/09/15 00:14:29;;;;;;;;;;;;;;;;;;348567;28;1012;-63
2022/09/15 00:14:39;;;;;;;;;;;;;;;;;;348581;28;1069;-62
2022/09/15 00:14:50;;;;;;;;;;;;;;;;;;348593;28;786;-63
2022/09/15 00:15:00;;;;;;;;;;;;;;;;;;348582;28;1000;-62
2022/09/15 00:15:13;;;;;;;;;;;;;;;;;;348592;28;968;-62
2022/09/15 00:15:23;;;;;;;;;;;;;;;;;;348577;28;992;-62
2022/09/15 00:15:34;;;;;;;;;;;;;;;;;;348560;28;952;-62
2022/09/15 00:15:44;;;;;;;;;;;;;;;;;;348516;28;846;-62
2022/09/15 00:15:54;;;;;;;;;;;;;;;;;;348621;28;988;-62
2022/09/15 00:16:05;;;;;;;;;;;;;;;;;;348538;28;1130;-62
2022/09/15 00:16:17;;;;;;;;;;;;;;;;;;348518;28;1004;-62
2022/09/15 00:16:29;;;;;;;;;;;;;;;;;;348546;28;965;-62
2022/09/15 00:16:39;;;;;;;;;;;;;;;;;;348603;28;805;-62
2022/09/15 00:16:50;;;;;;;;;;;;;;;;;;348579;28;917;-62
2022/09/15 00:17:00;;;;;;;;;;;;;;;;;;348577;28;913;-62
2022/09/15 00:17:10;;;;;;;;;;;;;;;;;;348591;28;924;-63
2022/09/15 00:17:20;;;;;;;;;;;;;;;;;;348515;28;972;-63
2022/09/15 00:17:30;;;;;;;;;;;;;;;;;;348583;28;818;-62
2022/09/15 00:17:41;;;;;;;;;;;;;;;;;;348592;28;1016;-62
2022/09/15 00:17:52;;;;;;;;;;;;;;;;;;348514;28;972;-62
2022/09/15 00:18:02;;;;;;;;;;;;;;;;;;348581;28;996;-62
2022/09/15 00:18:12;;;;;;;;;;;;;;;;;;348587;28;981;-62
2022/09/15 00:18:23;;;;;;;;;;;;;;;;;;348545;28;954;-62
2022/09/15 00:18:33;;;;;;;;;;;;;;;;;;348581;28;913;-62
2022/09/15 00:18:44;;;;;;;;;;;;;;;;;;348581;28;984;-62
2022/09/15 00:18:55;;;;;;;;;;;;;;;;;;348596;28;872;-63
2022/09/15 00:19:05;;;;;;;;;;;;;;;;;;348504;28;1059;-62
2022/09/15 00:19:15;;;;;;;;;;;;;;;;;;348583;28;810;-62
2022/09/15 00:19:25;;;;;;;;;;;;;;;;;;348560;28;1024;-62
2022/09/15 00:19:36;;;;;;;;;;;;;;;;;;348586;28;957;-62
2022/09/15 00:19:46;;;;;;;;;;;;;;;;;;348603;28;983;-62
2022/09/15 00:19:57;;;;;;;;;;;;;;;;;;348461;28;917;-63
2022/09/15 00:20:07;;;;;;;;;;;;;;;;;;348661;28;771;-62
2022/09/15 00:20:19;;;;;;;;;;;;;;;;;;348562;28;853;-62
2022/09/15 00:20:29;;;;;;;;;;;;;;;;;;348619;28;766;-62
2022/09/15 00:20:41;;;;;;;;;;;;;;;;;;348625;28;941;-62
2022/09/15 00:20:51;;;;;;;;;;;;;;;;;;348560;28;936;-62
2022/09/15 00:21:06;;;;;;;;;;;;;;;;;;350531;28;1386;-62
2022/09/15 00:21:18;;;;;;;;;;;;;;;;;;351333;28;972;-62
2022/09/15 00:21:30;;;;;;;;;;;;;;;;;;351328;27;1027;-62
2022/09/15 00:21:40;;;;;;;;;;;;;;;;;;351205;28;1281;-63
2022/09/15 00:21:51;;;;;;;;;;;;;;;;;;351338;28;949;-62
2022/09/15 00:22:01;;;;;;;;;;;;;;;;;;351278;28;933;-63
2022/09/15 00:22:11;;;;;;;;;;;;;;;;;;351346;28;921;-62
2022/09/15 00:22:22;;;;;;;;;;;;;;;;;;351352;28;848;-62
2022/09/15 00:22:33;;;;;;;;;;;;;;;;;;351348;28;979;-63
2022/09/15 00:22:43;;;;;;;;;;;;;;;;;;351379;28;952;-63
2022/09/15 00:22:53;;;;;;;;;;;;;;;;;;351337;28;917;-62
2022/09/15 00:23:03;;;;;;;;;;;;;;;;;;351368;28;754;-62
2022/09/15 00:23:14;;;;;;;;;;;;;;;;;;351356;28;984;-62
2022/09/15 00:23:24;;;;;;;;;;;;;;;;;;351271;28;987;-63
2022/09/15 00:23:35;;;;;;;;;;;;;;;;;;351354;28;980;-62
2022/09/15 00:23:46;;;;;;;;;;;;;;;;;;351348;28;929;-62
2022/09/15 00:23:57;;;;;;;;;;;;;;;;;;351360;27;995;-62
2022/09/15 00:24:08;;;;;;;;;;;;;;;;;;351274;28;995;-63
2022/09/15 00:24:18;;;;;;;;;;;;;;;;;;351358;28;1011;-62
2022/09/15 00:24:29;;;;;;;;;;;;;;;;;;351350;28;860;-62
2022/09/15 00:24:40;;;;;;;;;;;;;;;;;;351357;28;988;-63
2022/09/15 00:24:50;;;;;;;;;;;;;;;;;;351362;28;1051;-62
2022/09/15 00:25:01;;;;;;;;;;;;;;;;;;351283;28;980;-62
2022/09/15 00:25:11;;;;;;;;;;;;;;;;;;351334;28;933;-63
2022/09/15 00:25:21;;;;;;;;;;;;;;;;;;351422;28;813;-62
2022/09/15 00:25:32;;;;;;;;;;;;;;;;;;350830;28;1969;-63
2022/09/15 00:25:51;;;;;;;;;;;;;;;;;;348981;28;1327;-62
2022/09/15 00:26:07;;;;;;;;;;;;;;;;;;349660;28;1333;-62
2022/09/15 00:26:19;;;;;;;;;;;;;;;;;;349917;28;792;-63
2022/09/15 00:26:30;;;;;;;;;;;;;;;;;;349952;28;952;-62
2022/09/15 00:26:40;;;;;;;;;;;;;;;;;;349975;28;1166;-62
2022/09/15 00:26:50;;;;;;;;;;;;;;;;;;349929;28;909;-63
2022/09/15 00:27:00;;;;;;;;;;;;;;;;;;350242;28;1951;-62
2022/09/15 00:27:10;;;;;;;;;;;;;;;;;;351388;28;889;-63
2022/09/15 00:27:21;;;;;;;;;;;;;;;;;;351332;28;960;-62
2022/09/15 00:27:31;;;;;;;;;;;;;;;;;;351264;28;875;-62
2022/09/15 00:27:42;;;;;;;;;;;;;;;;;;351365;28;920;-62
2022/09/15 00:27:52;;;;;;;;;;;;;;;;;;351343;28;983;-62
2022/09/15 00:28:03;;;;;;;;;;;;;;;;;;351320;28;1037;-62
2022/09/15 00:28:14;;;;;;;;;;;;;;;;;;351274;28;833;-62
2022/09/15 00:28:24;;;;;;;;;;;;;;;;;;351312;28;1075;-62
2022/09/15 00:28:35;;;;;;;;;;;;;;;;;;351349;28;844;-62
2022/09/15 00:28:45;;;;;;;;;;;;;;;;;;351336;28;932;-62
2022/09/15 00:28:56;;;;;;;;;;;;;;;;;;351298;28;924;-62
2022/09/15 00:29:06;;;;;;;;;;;;;;;;;;351318;28;925;-62
2022/09/15 00:29:17;;;;;;;;;;;;;;;;;;351358;28;1011;-63
2022/09/15 00:29:27;;;;;;;;;;;;;;;;;;351380;28;916;-62
2022/09/15 00:29:37;;;;;;;;;;;;;;;;;;351314;28;907;-62
2022/09/15 00:29:47;;;;;;;;;;;;;;;;;;351333;28;908;-62
2022/09/15 00:29:58;;;;;;;;;;;;;;;;;;351401;28;782;-62
2022/09/15 00:30:08;;;;;;;;;;;;;;;;;;351370;28;987;-62
2022/09/15 00:30:19;;;;;;;;;;;;;;;;;;351323;28;932;-63
2022/09/15 00:30:29;;;;;;;;;;;;;;;;;;351313;28;968;-62
2022/09/15 00:30:40;;;;;;;;;;;;;;;;;;351308;28;797;-63
2022/09/15 00:30:52;;;;;;;;;;;;;;;;;;351340;28;941;-62
2022/09/15 00:31:06;;;;;;;;;;;;;;;;;;351332;28;873;-62
2022/09/15 00:31:18;;;;;;;;;;;;;;;;;;351328;28;969;-63
2022/09/15 00:31:29;;;;;;;;;;;;;;;;;;351360;28;960;-62
2022/09/15 00:31:39;;;;;;;;;;;;;;;;;;351359;28;920;-63
2022/09/15 00:31:49;;;;;;;;;;;;;;;;;;351295;28;1045;-62
2022/09/15 00:31:59;;;;;;;;;;;;;;;;;;351344;28;968;-63
2022/09/15 00:32:10;;;;;;;;;;;;;;;;;;351350;28;886;-62
2022/09/15 00:32:20;;;;;;;;;;;;;;;;;;351330;28;984;-62
2022/09/15 00:32:30;;;;;;;;;;;;;;;;;;351332;28;896;-62
2022/09/15 00:32:41;;;;;;;;;;;;;;;;;;351380;28;1043;-63
2022/09/15 00:32:51;;;;;;;;;;;;;;;;;;351327;28;960;-63
2022/09/15 00:33:01;;;;;;;;;;;;;;;;;;351324;28;810;-62
2022/09/15 00:33:13;;;;;;;;;;;;;;;;;;351335;28;905;-63
2022/09/15 00:33:23;;;;;;;;;;;;;;;;;;351330;28;932;-62
2022/09/15 00:33:33;;;;;;;;;;;;;;;;;;351355;28;924;-63
2022/09/15 00:33:47;;;;;;;;;;;;;;;;;;351330;28;1047;-63
2022/09/15 00:34:01;;;;;;;;;;;;;;;;;;351348;28;907;-63
2022/09/15 00:34:12;;;;;;;;;;;;;;;;;;351338;28;940;-63
2022/09/15 00:34:22;;;;;;;;;;;;;;;;;;351379;28;903;-62
2022/09/15 00:34:32;;;;;;;;;;;;;;;;;;351303;28;932;-62
2022/09/15 00:34:43;;;;;;;;;;;;;;;;;;351289;28;994;-63
2022/09/15 00:34:53;;;;;;;;;;;;;;;;;;351344;28;1204;-63
2022/09/15 00:35:04;;;;;;;;;;;;;;;;;;351424;28;776;-62
2022/09/15 00:35:14;;;;;;;;;;;;;;;;;;351357;28;987;-62
2022/09/15 00:35:25;;;;;;;;;;;;;;;;;;351353;28;919;-62
2022/09/15 00:35:36;;;;;;;;;;;;;;;;;;351309;28;797;-63
2022/09/15 00:35:48;;;;;;;;;;;;;;;;;;351345;28;939;-62
2022/09/15 00:36:00;;;;;;;;;;;;;;;;;;351367;28;975;-62
2022/09/15 00:36:10;;;;;;;;;;;;;;;;;;351351;28;924;-62
2022/09/15 00:36:21;;;;;;;;;;;;;;;;;;351321;28;979;-62
2022/09/15 00:36:32;;;;;;;;;;;;;;;;;;351300;28;940;-62
2022/09/15 00:36:42;;;;;;;;;;;;;;;;;;349093;28;1360;-62
2022/09/15 00:36:52;;;;;;;;;;;;;;;;;;348571;28;983;-63
2022/09/15 00:37:02;;;;;;;;;;;;;;;;;;348571;28;814;-62
2022/09/15 00:37:13;;;;;;;;;;;;;;;;;;348512;28;996;-62
2022/09/15 00:37:23;;;;;;;;;;;;;;;;;;348552;28;980;-62
2022/09/15 00:37:33;;;;;;;;;;;;;;;;;;348580;28;821;-62
2022/09/15 00:37:43;;;;;;;;;;;;;;;;;;348549;28;975;-62
2022/09/15 00:37:53;;;;;;;;;;;;;;;;;;348578;28;936;-62
2022/09/15 00:38:04;;;;;;;;;;;;;;;;;;348499;28;916;-63
2022/09/15 00:38:15;;;;;;;;;;;;;;;;;;348591;28;906;-62
2022/09/15 00:38:25;;;;;;;;;;;;;;;;;;348560;28;936;-63
2022/09/15 00:38:36;;;;;;;;;;;;;;;;;;348567;28;770;-62
2022/09/15 00:38:46;;;;;;;;;;;;;;;;;;348487;28;1181;-62
2022/09/15 00:38:56;;;;;;;;;;;;;;;;;;348507;28;1019;-62
2022/09/15 00:39:07;;;;;;;;;;;;;;;;;;348577;28;913;-62
2022/09/15 00:39:17;;;;;;;;;;;;;;;;;;348597;28;794;-62
2022/09/15 00:39:27;;;;;;;;;;;;;;;;;;348577;28;822;-62
2022/09/15 00:39:37;;;;;;;;;;;;;;;;;;348560;28;960;-62
2022/09/15 00:39:48;;;;;;;;;;;;;;;;;;348560;28;782;-62
2022/09/15 00:39:58;;;;;;;;;;;;;;;;;;348567;28;912;-62
2022/09/15 00:40:08;;;;;;;;;;;;;;;;;;348586;28;967;-62
2022/09/15 00:40:19;;;;;;;;;;;;;;;;;;348571;28;841;-62
2022/09/15 00:40:29;;;;;;;;;;;;;;;;;;348579;28;857;-62
2022/09/15 00:40:47;;;;;;;;;;;;;;;;;;348541;28;909;-63
2022/09/15 00:40:58;;;;;;;;;;;;;;;;;;348546;28;1156;-62
2022/09/15 00:41:11;;;;;;;;;;;;;;;;;;348588;28;932;-62
2022/09/15 00:41:22;;;;;;;;;;;;;;;;;;348568;28;969;-62
2022/09/15 00:41:32;;;;;;;;;;;;;;;;;;348572;28;905;-62
2022/09/15 00:41:42;;;;;;;;;;;;;;;;;;348555;28;1008;-62
2022/09/15 00:41:52;;;;;;;;;;;;;;;;;;348545;28;1059;-62
2022/09/15 00:42:03;;;;;;;;;;;;;;;;;;348553;28;912;-62
2022/09/15 00:42:14;;;;;;;;;;;;;;;;;;348488;28;968;-62
2022/09/15 00:42:25;;;;;;;;;;;;;;;;;;348566;28;1031;-62
2022/09/15 00:42:35;;;;;;;;;;;;;;;;;;348572;28;936;-62
2022/09/15 00:42:45;;;;;;;;;;;;;;;;;;348457;28;766;-63
2022/09/15 00:42:55;;;;;;;;;;;;;;;;;;348300;28;1424;-62
2022/09/15 00:43:08;;;;;;;;;;;;;;;;;;349688;28;920;-63
2022/09/15 00:43:20;;;;;;;;;;;;;;;;;;349971;28;915;-63
2022/09/15 00:43:49;;;;;;;;;;;;;;;;;;349910;28;1160;-62
2022/09/15 00:44:25;;;;;;;;;;;;;;;;;;349190;28;1927;-63
2022/09/15 00:44:35;;;;;;;;;;;;;;;;;;348674;28;1003;-62
2022/09/15 00:44:48;;;;;;;;;;;;;;;;;;348390;28;1094;-62
2022/09/15 00:45:00;;;;;;;;;;;;;;;;;;348485;28;883;-62
2022/09/15 00:45:14;;;;;;;;;;;;;;;;;;348431;28;1362;-62
2022/09/15 00:45:25;;;;;;;;;;;;;;;;;;348560;28;868;-63
2022/09/15 00:45:36;;;;;;;;;;;;;;;;;;348510;28;1906;-62
2022/09/15 00:45:47;;;;;;;;;;;;;;;;;;348574;28;987;-62
2022/09/15 00:45:57;;;;;;;;;;;;;;;;;;348507;28;851;-62
2022/09/15 00:46:08;;;;;;;;;;;;;;;;;;348585;28;916;-62
2022/09/15 00:46:29;;;;;;;;;;;;;;;;;;348585;28;912;-62
2022/09/15 00:46:41;;;;;;;;;;;;;;;;;;348618;28;881;-62
2022/09/15 00:46:53;;;;;;;;;;;;;;;;;;348563;28;821;-62
2022/09/15 00:47:04;;;;;;;;;;;;;;;;;;348503;28;936;-62
2022/09/15 00:47:16;;;;;;;;;;;;;;;;;;348592;28;924;-62
2022/09/15 00:47:35;;;;;;;;;;;;;;;;;;348574;28;842;-62
2022/09/15 00:47:45;;;;;;;;;;;;;;;;;;348515;28;983;-62
2022/09/15 00:47:55;;;;;;;;;;;;;;;;;;348582;28;868;-62
2022/09/15 00:48:08;;;;;;;;;;;;;;;;;;348592;28;952;-62
2022/09/15 00:48:20;;;;;;;;;;;;;;;;;;348577;28;788;-63
2022/09/15 00:48:31;;;;;;;;;;;;;;;;;;348639;28;763;-62
2022/09/15 00:48:45;;;;;;;;;;;;;;;;;;348564;28;987;-62
2022/09/15 00:49:02;;;;;;;;;;;;;;;;;;348515;28;849;-62
2022/09/15 00:49:18;;;;;;;;;;;;;;;;;;348528;28;863;-62
2022/09/15 00:49:30;;;;;;;;;;;;;;;;;;348516;28;940;-62
2022/09/15 00:49:41;;;;;;;;;;;;;;;;;;348611;28;913;-63
2022/09/15 00:49:54;;;;;;;;;;;;;;;;;;349182;28;1423;-63
2022/09/15 00:50:07;;;;;;;;;;;;;;;;;;349887;28;988;-62
2022/09/15 00:50:19;;;;;;;;;;;;;;;;;;349943;28;883;-62
2022/09/15 00:50:31;;;;;;;;;;;;;;;;;;349899;28;912;-63
2022/09/15 00:50:44;;;;;;;;;;;;;;;;;;349960;28;929;-63
2022/09/15 00:50:55;;;;;;;;;;;;;;;;;;349932;28;973;-63
2022/09/15 00:51:07;;;;;;;;;;;;;;;;;;349901;28;941;-62
2022/09/15 00:51:21;;;;;;;;;;;;;;;;;;349978;28;775;-62
2022/09/15 00:51:37;;;;;;;;;;;;;;;;;;349938;28;964;-63
2022/09/15 00:51:59;;;;;;;;;;;;;;;;;;349910;28;864;-63
2022/09/15 00:52:12;;;;;;;;;;;;;;;;;;349952;28;830;-62
2022/09/15 00:52:27;;;;;;;;;;;;;;;;;;349894;28;779;-62
2022/09/15 00:52:41;;;;;;;;;;;;;;;;;;349930;28;1004;-62
2022/09/15 00:52:57;;;;;;;;;;;;;;;;;;349911;28;790;-62
2022/09/15 00:53:09;;;;;;;;;;;;;;;;;;349926;28;1000;-63
2022/09/15 00:53:22;;;;;;;;;;;;;;;;;;349869;28;988;-62
2022/09/15 00:53:33;;;;;;;;;;;;;;;;;;349955;28;931;-62
2022/09/15 00:53:45;;;;;;;;;;;;;;;;;;349920;28;974;-62
2022/09/15 00:53:58;;;;;;;;;;;;;;;;;;349986;28;774;-62
2022/09/15 00:54:11;;;;;;;;;;;;;;;;;;349909;28;841;-62
2022/09/15 00:54:24;;;;;;;;;;;;;;;;;;349925;28;887;-62
2022/09/15 00:54:38;;;;;;;;;;;;;;;;;;349911;28;960;-62
2022/09/15 00:54:48;;;;;;;;;;;;;;;;;;349939;28;917;-62
2022/09/15 00:55:10;;;;;;;;;;;;;;;;;;349932;28;936;-63
2022/09/15 00:55:20;;;;;;;;;;;;;;;;;;349924;28;841;-62
2022/09/15 00:55:34;;;;;;;;;;;;;;;;;;349975;28;982;-62
2022/09/15 00:55:47;;;;;;;;;;;;;;;;;;349871;28;1031;-62
2022/09/15 00:55:58;;;;;;;;;;;;;;;;;;349929;28;949;-62
2022/09/15 00:56:11;;;;;;;;;;;;;;;;;;349939;28;936;-62
2022/09/15 00:56:22;;;;;;;;;;;;;;;;;;349976;28;940;-63
2022/09/15 00:56:33;;;;;;;;;;;;;;;;;;349908;28;938;-62
2022/09/15 00:56:45;;;;;;;;;;;;;;;;;;349924;28;1003;-62
2022/09/15 00:56:57;;;;;;;;;;;;;;;;;;349968;28;1011;-62
2022/09/15 00:57:14;;;;;;;;;;;;;;;;;;348882;28;1490;-62
2022/09/15 00:57:28;;;;;;;;;;;;;;;;;;349821;28;987;-62
2022/09/15 00:57:44;;;;;;;;;;;;;;;;;;349969;28;846;-62
2022/09/15 00:58:00;;;;;;;;;;;;;;;;;;349958;28;968;-62
2022/09/15 00:58:13;;;;;;;;;;;;;;;;;;349969;28;758;-62
2022/09/15 00:58:29;;;;;;;;;;;;;;;;;;349941;28;924;-62
2022/09/15 00:58:43;;;;;;;;;;;;;;;;;;349956;28;777;-63
2022/09/15 00:58:58;;;;;;;;;;;;;;;;;;349975;28;866;-63
2022/09/15 00:59:10;;;;;;;;;;;;;;;;;;349928;28;881;-63
2022/09/15 00:59:23;;;;;;;;;;;;;;;;;;349947;28;975;-63
2022/09/15 00:59:35;;;;;;;;;;;;;;;;;;349854;28;924;-62
2022/09/15 00:59:46;;;;;;;;;;;;;;;;;;349887;28;980;-63
2022/09/15 00:59:58;;;;;;;;;;;;;;;;;;349928;28;956;-62
2022/09/15 01:00:10;;;;;;;;;;;;;;;;;;349898;28;921;-62
2022/09/15 01:00:22;;;;;;;;;;;;;;;;;;349810;28;1264;-62
2022/09/15 01:00:33;;;;;;;;;;;;;;;;;;349842;28;1035;-62
2022/09/15 01:00:46;;;;;;;;;;;;;;;;;;349923;28;971;-62
2022/09/15 01:00:59;;;;;;;;;;;;;;;;;;349945;28;960;-62
2022/09/15 01:01:11;;;;;;;;;;;;;;;;;;349909;28;944;-62
2022/09/15 01:01:23;;;;;;;;;;;;;;;;;;349922;28;778;-62
2022/09/15 01:01:34;;;;;;;;;;;;;;;;;;349905;28;1094;-62
2022/09/15 01:01:45;;;;;;;;;;;;;;;;;;349933;28;913;-62
2022/09/15 01:02:00;;;;;;;;;;;;;;;;;;349919;28;979;-63
2022/09/15 01:02:10;;;;;;;;;;;;;;;;;;349670;28;1368;-62
2022/09/15 01:02:22;;;;;;;;;;;;;;;;;;349975;28;774;-63
2022/09/15 01:02:33;;;;;;;;;;;;;;;;;;349960;28;975;-62
2022/09/15 01:02:45;;;;;;;;;;;;;;;;;;349951;28;952;-62
2022/09/15 01:02:55;;;;;;;;;;;;;;;;;;349925;28;905;-63
2022/09/15 01:03:06;;;;;;;;;;;;;;;;;;349886;28;956;-62
2022/09/15 01:03:16;;;;;;;;;;;;;;;;;;349917;28;940;-62
2022/09/15 01:03:29;;;;;;;;;;;;;;;;;;349926;28;912;-62
2022/09/15 01:03:39;;;;;;;;;;;;;;;;;;349854;28;898;-62
2022/09/15 01:03:49;;;;;;;;;;;;;;;;;;349910;28;980;-62
2022/09/15 01:04:00;;;;;;;;;;;;;;;;;;349946;28;850;-63
2022/09/15 01:04:11;;;;;;;;;;;;;;;;;;350056;28;1176;-63
2022/09/15 01:04:21;;;;;;;;;;;;;;;;;;350177;28;960;-62
2022/09/15 01:04:31;;;;;;;;;;;;;;;;;;350149;27;988;-63
2022/09/15 01:04:42;;;;;;;;;;;;;;;;;;350193;28;975;-63
2022/09/15 01:04:53;;;;;;;;;;;;;;;;;;350171;28;1015;-62
2022/09/15 01:05:06;;;;;;;;;;;;;;;;;;350173;28;932;-62
2022/09/15 01:05:18;;;;;;;;;;;;;;;;;;350166;28;851;-63
2022/09/15 01:05:31;;;;;;;;;;;;;;;;;;350181;28;936;-62
2022/09/15 01:05:46;;;;;;;;;;;;;;;;;;350090;28;1910;-62
2022/09/15 01:06:03;;;;;;;;;;;;;;;;;;350200;28;879;-63
2022/09/15 01:06:22;;;;;;;;;;;;;;;;;;350195;28;826;-62
2022/09/15 01:06:35;;;;;;;;;;;;;;;;;;350186;28;931;-63
2022/09/15 01:06:51;;;;;;;;;;;;;;;;;;350199;28;963;-62
2022/09/15 01:07:02;;;;;;;;;;;;;;;;;;350246;28;1422;-63
2022/09/15 01:07:15;;;;;;;;;;;;;;;;;;350163;28;885;-62
2022/09/15 01:07:43;;;;;;;;;;;;;;;;;;350171;28;929;-62
2022/09/15 01:07:56;;;;;;;;;;;;;;;;;;350085;28;991;-62
2022/09/15 01:08:17;;;;;;;;;;;;;;;;;;350197;28;975;-63
2022/09/15 01:08:38;;;;;;;;;;;;;;;;;;350141;28;983;-63
2022/09/15 01:09:00;;;;;;;;;;;;;;;;;;350152;28;967;-62
2022/09/15 01:09:16;;;;;;;;;;;;;;;;;;350149;28;1026;-62
2022/09/15 01:09:30;;;;;;;;;;;;;;;;;;350163;28;936;-62
2022/09/15 01:09:44;;;;;;;;;;;;;;;;;;350232;28;924;-62
2022/09/15 01:09:57;;;;;;;;;;;;;;;;;;350134;28;878;-62
2022/09/15 01:10:11;;;;;;;;;;;;;;;;;;350188;28;758;-62
2022/09/15 01:10:26;;;;;;;;;;;;;;;;;;350164;28;976;-62
2022/09/15 01:10:37;;;;;;;;;;;;;;;;;;350148;28;905;-63
2022/09/15 01:10:48;;;;;;;;;;;;;;;;;;350134;28;1035;-62
2022/09/15 01:10:58;;;;;;;;;;;;;;;;;;350244;28;877;-62
2022/09/15 01:11:08;;;;;;;;;;;;;;;;;;350189;28;853;-62
2022/09/15 01:11:19;;;;;;;;;;;;;;;;;;350200;28;976;-62
2022/09/15 01:11:29;;;;;;;;;;;;;;;;;;350104;28;1059;-63
2022/09/15 01:11:40;;;;;;;;;;;;;;;;;;350130;28;955;-62
2022/09/15 01:11:50;;;;;;;;;;;;;;;;;;348964;28;1305;-62
2022/09/15 01:12:01;;;;;;;;;;;;;;;;;;348745;28;913;-62
2022/09/15 01:12:12;;;;;;;;;;;;;;;;;;348829;28;841;-62
2022/09/15 01:12:23;;;;;;;;;;;;;;;;;;348762;28;956;-63
2022/09/15 01:12:33;;;;;;;;;;;;;;;;;;348848;28;826;-62
2022/09/15 01:12:44;;;;;;;;;;;;;;;;;;348822;28;996;-62
2022/09/15 01:12:56;;;;;;;;;;;;;;;;;;348796;28;901;-62
2022/09/15 01:13:08;;;;;;;;;;;;;;;;;;348753;28;921;-63
2022/09/15 01:13:18;;;;;;;;;;;;;;;;;;348823;28;778;-63
2022/09/15 01:13:29;;;;;;;;;;;;;;;;;;348774;28;1153;-62
2022/09/15 01:13:39;;;;;;;;;;;;;;;;;;348803;28;960;-62
2022/09/15 01:13:49;;;;;;;;;;;;;;;;;;348782;28;866;-63
2022/09/15 01:14:00;;;;;;;;;;;;;;;;;;348733;28;916;-63
2022/09/15 01:14:11;;;;;;;;;;;;;;;;;;348792;28;965;-62
2022/09/15 01:14:21;;;;;;;;;;;;;;;;;;348795;28;1027;-63
2022/09/15 01:14:32;;;;;;;;;;;;;;;;;;348758;28;977;-63
2022/09/15 01:14:42;;;;;;;;;;;;;;;;;;348797;28;874;-63
2022/09/15 01:14:52;;;;;;;;;;;;;;;;;;348768;28;905;-63
2022/09/15 01:15:03;;;;;;;;;;;;;;;;;;348752;28;1297;-63
2022/09/15 01:15:14;;;;;;;;;;;;;;;;;;348778;28;940;-62
2022/09/15 01:15:29;;;;;;;;;;;;;;;;;;348844;28;940;-63
2022/09/15 01:15:42;;;;;;;;;;;;;;;;;;348773;28;893;-62
2022/09/15 01:16:11;;;;;;;;;;;;;;;;;;348806;28;977;-62
2022/09/15 01:16:48;;;;;;;;;;;;;;;;;;348768;28;932;-63
2022/09/15 01:17:05;;;;;;;;;;;;;;;;;;348672;28;1220;-63
2022/09/15 01:17:28;;;;;;;;;;;;;;;;;;348821;28;837;-62
2022/09/15 01:17:57;;;;;;;;;;;;;;;;;;348853;28;841;-62
2022/09/15 01:18:35;;;;;;;;;;;;;;;;;;348818;28;1005;-63
2022/09/15 01:18:55;;;;;;;;;;;;;;;;;;348787;28;937;-62
2022/09/15 01:19:24;;;;;;;;;;;;;;;;;;348817;28;909;-63
2022/09/15 01:19:47;;;;;;;;;;;;;;;;;;348714;28;1015;-62
2022/09/15 01:20:13;;;;;;;;;;;;;;;;;;348273;28;1848;-62
2022/09/15 01:20:32;;;;;;;;;;;;;;;;;;348735;28;904;-62
2022/09/15 01:21:01;;;;;;;;;;;;;;;;;;348812;28;846;-62
2022/09/15 01:21:11;;;;;;;;;;;;;;;;;;348757;28;849;-63
2022/09/15 01:21:33;;;;;;;;;;;;;;;;;;348812;28;853;-62
2022/09/15 01:21:46;;;;;;;;;;;;;;;;;;348838;28;889;-63
2022/09/15 01:22:07;;;;;;;;;;;;;;;;;;348736;28;1250;-62
2022/09/15 01:22:26;;;;;;;;;;;;;;;;;;349865;28;995;-62
2022/09/15 01:22:36;;;;;;;;;;;;;;;;;;350066;28;1008;-62
2022/09/15 01:22:55;;;;;;;;;;;;;;;;;;350162;28;905;-62
2022/09/15 01:23:11;;;;;;;;;;;;;;;;;;350190;28;972;-62
2022/09/15 01:23:49;;;;;;;;;;;;;;;;;;350135;28;983;-62
2022/09/15 01:24:18;;;;;;;;;;;;;;;;;;350116;28;920;-62
2022/09/15 01:24:28;;;;;;;;;;;;;;;;;;350151;28;945;-63
2022/09/15 01:24:43;;;;;;;;;;;;;;;;;;350069;28;995;-62
2022/09/15 01:25:22;;;;;;;;;;;;;;;;;;350184;28;999;-62
2022/09/15 01:25:38;;;;;;;;;;;;;;;;;;350141;28;924;-63
2022/09/15 01:26:24;;;;;;;;;;;;;;;;;;350171;28;924;-62
2022/09/15 01:26:46;;;;;;;;;;;;;;;;;;351298;28;1016;-63
2022/09/15 01:26:56;;;;;;;;;;;;;;;;;;351374;28;975;-62
2022/09/15 01:27:25;;;;;;;;;;;;;;;;;;351400;28;905;-62
2022/09/15 01:27:47;;;;;;;;;;;;;;;;;;351447;28;924;-63
2022/09/15 01:28:16;;;;;;;;;;;;;;;;;;351395;28;905;-62
2022/09/15 01:28:29;;;;;;;;;;;;;;;;;;351316;28;1031;-63
2022/09/15 01:28:54;;;;;;;;;;;;;;;;;;350781;28;1305;-62
2022/09/15 01:29:04;;;;;;;;;;;;;;;;;;351374;28;999;-63
2022/09/15 01:29:26;;;;;;;;;;;;;;;;;;351362;28;1009;-63
2022/09/15 01:29:39;;;;;;;;;;;;;;;;;;350191;28;1010;-63
2022/09/15 01:29:49;;;;;;;;;;;;;;;;;;350195;28;964;-62
2022/09/15 01:30:18;;;;;;;;;;;;;;;;;;350113;28;920;-63